Silver Lake, New Jersey
Current Conditions -  °F | °C
As of 4:07 PM on Thursday 18 Dec 2014 (Local Time) from KFWN Reporting Station
Overcast Overcast  
Wind Chill:   Ceiling: 2900
Heat Index:   Visibility: 10mi
Dew Point: -4°   Wind: 3mph
Humidity: 62%   Direction: 240°WSW
Pressure: 29.98"   Gusts: NA
Location:  41.1122°N, 74.4998°W
Report Text: KFWN 182107Z AUTO 24003KT 10SM OVC029 03/M04 A2998 RMK AO2 T00281039
Loading
Personal Weather Stations






























Interactive Weather Map New forecast layout! Learn more

10-Day Weather Forecast

Advertisements
Track Severe Weather on mobile